Time;durP1;ratioP1;P1;durP2;ratioP2;P2;SDS_P1;SDS_P2;PMS_P1;PMS_P2;Temp;Humidity;BMP_temperature;BMP_pressure;BME280_temperature;BME280_humidity;BME280_pressure;Samples;Min_cycle;Max_cycle;Signal;HPM_P1;HPM_P2
2024/03/20 00:00:06;;;;;;;1.30;1.10;;;23.00;55.20;;;;;;4993078;28;20209;-69
2024/03/20 00:02:32;;;;;;;1.50;1.40;;;23.00;55.30;;;;;;4993037;28;20427;-68
2024/03/20 00:04:58;;;;;;;1.40;1.30;;;23.00;55.30;;;;;;4993169;28;20495;-69
2024/03/20 00:07:23;;;;;;;2.00;1.60;;;23.00;55.30;;;;;;4993206;28;20652;-69
2024/03/20 00:09:49;;;;;;;1.60;1.40;;;23.00;55.30;;;;;;4992885;28;20207;-69
2024/03/20 00:12:15;;;;;;;1.20;1.00;;;23.00;55.30;;;;;;4992960;28;20265;-70
2024/03/20 00:14:40;;;;;;;1.53;1.13;;;23.00;55.30;;;;;;4993343;28;20711;-69
2024/03/20 00:17:07;;;;;;;1.73;1.47;;;23.00;55.30;;;;;;4992976;28;20173;-69
2024/03/20 00:19:33;;;;;;;1.47;1.20;;;23.00;55.30;;;;;;4993267;28;20275;-69
2024/03/20 00:21:59;;;;;;;1.57;1.37;;;23.00;55.30;;;;;;4993289;28;20416;-69
2024/03/20 00:24:25;;;;;;;2.00;1.40;;;23.00;55.30;;;;;;4992473;28;20546;-70
2024/03/20 00:26:50;;;;;;;1.37;1.27;;;23.00;55.30;;;;;;4992584;28;20181;-69
2024/03/20 00:29:16;;;;;;;1.40;1.20;;;23.00;55.30;;;;;;4991883;28;20201;-69
2024/03/20 00:31:42;;;;;;;1.30;1.10;;;23.00;55.30;;;;;;4974989;28;20223;-70
2024/03/20 00:34:08;;;;;;;1.63;1.33;;;23.00;55.30;;;;;;4992751;28;20259;-69
2024/03/20 00:36:34;;;;;;;1.50;1.20;;;23.00;55.30;;;;;;4992652;28;20551;-69
2024/03/20 00:38:59;;;;;;;1.10;0.97;;;23.00;55.30;;;;;;4992892;28;20786;-70
2024/03/20 00:41:25;;;;;;;1.40;1.10;;;22.90;55.20;;;;;;4992483;28;20264;-69
2024/03/20 00:43:51;;;;;;;1.63;1.23;;;23.00;55.30;;;;;;4992366;28;20541;-69
2024/03/20 00:46:16;;;;;;;2.40;1.33;;;22.90;55.30;;;;;;4992725;28;20255;-70
2024/03/20 00:48:42;;;;;;;1.40;1.23;;;22.90;55.20;;;;;;4992848;28;20169;-70
2024/03/20 00:51:07;;;;;;;1.30;1.20;;;22.90;55.30;;;;;;4992328;28;20213;-69
2024/03/20 00:53:33;;;;;;;1.97;1.30;;;22.90;55.30;;;;;;4992839;28;20651;-70
2024/03/20 00:55:58;;;;;;;1.50;1.30;;;22.90;55.30;;;;;;4993159;28;20219;-68
2024/03/20 00:58:24;;;;;;;1.40;1.30;;;22.90;55.30;;;;;;4992471;28;20173;-69
2024/03/20 01:00:50;;;;;;;1.20;1.10;;;22.90;55.30;;;;;;4996212;28;20275;-70
2024/03/20 01:03:16;;;;;;;1.70;1.43;;;22.90;55.30;;;;;;4996017;28;20176;-69
2024/03/20 01:05:41;;;;;;;2.40;1.40;;;22.90;55.30;;;;;;4996411;28;20416;-69
2024/03/20 01:08:07;;;;;;;1.43;1.33;;;22.90;55.30;;;;;;4996406;28;20203;-69
2024/03/20 01:10:33;;;;;;;1.40;1.23;;;22.90;55.30;;;;;;4996041;28;20205;-69
2024/03/20 01:12:58;;;;;;;1.20;1.07;;;22.90;55.30;;;;;;4996292;28;20632;-69
2024/03/20 01:15:24;;;;;;;1.20;1.10;;;22.90;55.30;;;;;;4996075;28;20224;-69
2024/03/20 01:17:50;;;;;;;1.70;1.50;;;22.90;55.30;;;;;;4996398;28;20170;-69
2024/03/20 01:20:16;;;;;;;1.50;1.40;;;22.90;55.30;;;;;;4995834;28;20207;-69
2024/03/20 01:22:41;;;;;;;1.50;1.17;;;22.90;55.30;;;;;;4996101;28;20173;-69
2024/03/20 01:25:08;;;;;;;1.57;1.30;;;22.90;55.30;;;;;;4995964;28;20445;-70
2024/03/20 01:27:34;;;;;;;1.83;1.40;;;22.90;55.30;;;;;;4995324;28;20200;-70
2024/03/20 01:30:00;;;;;;;1.60;1.20;;;22.90;55.30;;;;;;4977359;28;20468;-69
2024/03/20 01:32:26;;;;;;;1.60;1.23;;;22.90;55.30;;;;;;4995537;28;20410;-69
2024/03/20 01:34:51;;;;;;;1.47;1.30;;;22.90;55.30;;;;;;4978206;28;20459;-69
2024/03/20 01:37:18;;;;;;;1.33;1.20;;;22.90;55.30;;;;;;4995529;28;20173;-69
2024/03/20 01:39:43;;;;;;;1.10;1.00;;;22.90;55.30;;;;;;4995032;28;20789;-70
2024/03/20 01:42:09;;;;;;;1.30;1.10;;;22.90;55.30;;;;;;4995626;28;20177;-70
2024/03/20 01:44:34;;;;;;;1.30;1.00;;;22.90;55.30;;;;;;4995297;28;20272;-69
2024/03/20 01:47:02;;;;;;;1.63;1.20;;;22.90;55.30;;;;;;4995680;28;20192;-70
2024/03/20 01:49:29;;;;;;;1.23;1.13;;;22.80;55.30;;;;;;4995756;28;20213;-70
2024/03/20 01:51:54;;;;;;;1.77;1.20;;;22.80;55.30;;;;;;4995605;28;20934;-70
2024/03/20 01:54:21;;;;;;;1.63;1.40;;;22.80;55.30;;;;;;4995175;28;20427;-69
2024/03/20 01:56:47;;;;;;;1.40;1.17;;;22.80;55.30;;;;;;4995175;28;20177;-69
2024/03/20 01:59:12;;;;;;;1.40;1.13;;;22.80;55.30;;;;;;4995248;28;20507;-70
2024/03/20 02:01:38;;;;;;;1.20;1.10;;;22.80;55.30;;;;;;4995023;28;20192;-69
2024/03/20 02:04:07;;;;;;;1.47;1.37;;;22.80;55.30;;;;;;4994772;28;20173;-70
2024/03/20 02:06:33;;;;;;;1.33;1.23;;;22.80;55.30;;;;;;4995248;28;20580;-69
2024/03/20 02:08:59;;;;;;;1.80;1.50;;;22.80;55.30;;;;;;4994711;28;20932;-69
2024/03/20 02:11:27;;;;;;;1.30;1.20;;;22.80;55.30;;;;;;4994529;28;20436;-69
2024/03/20 02:13:54;;;;;;;1.20;1.10;;;22.80;55.30;;;;;;4994859;28;20435;-70
2024/03/20 02:16:21;;;;;;;1.60;1.30;;;22.80;55.30;;;;;;4995514;28;20953;-69
2024/03/20 02:18:48;;;;;;;1.40;1.10;;;22.80;55.30;;;;;;4995426;28;20431;-69
2024/03/20 02:21:15;;;;;;;1.50;1.10;;;22.80;55.30;;;;;;4994559;28;20520;-69
2024/03/20 02:23:40;;;;;;;1.20;1.00;;;22.80;55.30;;;;;;4995015;28;20420;-69
2024/03/20 02:26:08;;;;;;;1.50;1.20;;;22.80;55.30;;;;;;4995001;28;20413;-69
2024/03/20 02:28:35;;;;;;;1.27;1.17;;;22.80;55.30;;;;;;4994932;28;20231;-69
2024/03/20 02:31:02;;;;;;;1.30;1.00;;;22.80;55.30;;;;;;4976274;28;20855;-69
2024/03/20 02:33:27;;;;;;;1.23;1.13;;;22.80;55.30;;;;;;4994825;28;20408;-69
2024/03/20 02:35:53;;;;;;;1.23;1.10;;;22.80;55.30;;;;;;4994584;28;20417;-69
2024/03/20 02:38:24;;;;;;;1.57;1.47;;;22.80;55.30;;;;;;4994510;28;20264;-70
2024/03/20 02:40:52;;;;;;;1.17;0.93;;;22.80;55.30;;;;;;4995001;28;20841;-70
2024/03/20 02:43:21;;;;;;;1.20;0.90;;;22.80;55.30;;;;;;4994608;28;20428;-68
2024/03/20 02:45:46;;;;;;;1.23;1.10;;;22.80;55.30;;;;;;4977244;28;20520;-69
2024/03/20 02:48:13;;;;;;;1.10;0.90;;;22.80;55.30;;;;;;4994524;28;20978;-70
2024/03/20 02:50:42;;;;;;;0.90;0.80;;;22.80;55.30;;;;;;4993883;28;20220;-70
2024/03/20 02:53:08;;;;;;;1.47;1.17;;;22.80;55.30;;;;;;4993987;28;20458;-70
2024/03/20 02:55:35;;;;;;;1.63;1.40;;;22.80;55.40;;;;;;4994476;28;20503;-69
2024/03/20 02:58:01;;;;;;;1.27;1.00;;;22.80;55.30;;;;;;4994019;28;20188;-70
2024/03/20 03:00:28;;;;;;;1.30;1.00;;;22.80;55.30;;;;;;4994393;28;20870;-69
2024/03/20 03:02:54;;;;;;;1.40;1.03;;;22.80;55.30;;;;;;4994294;28;20420;-69
2024/03/20 03:05:24;;;;;;;1.60;1.40;;;22.80;55.30;;;;;;4993771;28;20411;-70
2024/03/20 03:07:50;;;;;;;1.20;1.10;;;22.80;55.30;;;;;;4993488;28;20438;-68
2024/03/20 03:10:15;;;;;;;1.40;1.17;;;22.80;55.40;;;;;;4993714;28;20460;-70
2024/03/20 03:12:46;;;;;;;1.80;1.40;;;22.80;55.30;;;;;;4993243;28;20196;-69
2024/03/20 03:15:12;;;;;;;1.83;1.20;;;22.80;55.30;;;;;;4975911;28;20177;-69
2024/03/20 03:17:38;;;;;;;1.33;1.10;;;22.80;55.40;;;;;;4975830;28;20872;-70
2024/03/20 03:20:14;;;;;;;1.73;1.27;;;22.80;55.30;;;;;;4976233;28;20479;-70
2024/03/20 03:22:41;;;;;;;1.27;1.17;;;22.80;55.30;;;;;;4992658;28;20606;-69
2024/03/20 03:25:08;;;;;;;1.40;1.30;;;22.80;55.40;;;;;;4993861;28;20426;-70
2024/03/20 03:27:34;;;;;;;1.60;1.20;;;22.80;55.40;;;;;;4993253;28;20440;-69
2024/03/20 03:30:00;;;;;;;1.50;1.30;;;22.80;55.40;;;;;;4992773;28;20474;-69
2024/03/20 03:32:25;;;;;;;1.30;1.10;;;22.80;55.40;;;;;;4993049;28;20199;-70
2024/03/20 03:34:51;;;;;;;1.83;1.27;;;22.80;55.40;;;;;;4993328;28;20411;-69
2024/03/20 03:37:17;;;;;;;1.20;1.00;;;22.80;55.40;;;;;;4993685;28;20728;-69
2024/03/20 03:39:43;;;;;;;1.33;1.00;;;22.80;55.40;;;;;;4992871;28;20455;-70
2024/03/20 03:42:08;;;;;;;1.30;1.00;;;22.80;55.40;;;;;;4993382;28;20177;-69
2024/03/20 03:44:34;;;;;;;1.20;1.00;;;22.80;55.30;;;;;;4993179;28;20636;-69
2024/03/20 03:46:59;;;;;;;1.20;0.90;;;22.80;55.40;;;;;;4993403;28;20569;-68
2024/03/20 03:49:25;;;;;;;1.60;1.30;;;22.80;55.30;;;;;;4993108;28;20205;-69
2024/03/20 03:51:51;;;;;;;1.10;0.80;;;22.80;55.40;;;;;;4992067;28;20173;-69
2024/03/20 03:54:16;;;;;;;1.20;1.00;;;22.80;55.40;;;;;;4993251;28;20526;-69
2024/03/20 03:56:42;;;;;;;1.13;1.03;;;22.80;55.40;;;;;;4993109;28;20176;-67
2024/03/20 03:59:07;;;;;;;1.20;1.00;;;22.80;55.30;;;;;;4993206;28;20205;-69
2024/03/20 04:01:33;;;;;;;1.20;1.00;;;22.80;55.40;;;;;;4992534;28;20189;-69
2024/03/20 04:03:58;;;;;;;1.40;1.30;;;22.80;55.30;;;;;;4993198;28;20173;-70
2024/03/20 04:06:24;;;;;;;1.20;1.00;;;22.80;55.30;;;;;;4993145;28;20180;-68
2024/03/20 04:08:49;;;;;;;1.50;1.20;;;22.80;55.40;;;;;;4993098;28;20169;-69
2024/03/20 04:11:15;;;;;;;0.97;0.80;;;22.80;55.40;;;;;;4992481;28;20213;-69
2024/03/20 04:13:40;;;;;;;1.07;0.90;;;22.80;55.30;;;;;;4992693;28;20175;-70
2024/03/20 04:16:06;;;;;;;1.40;1.10;;;22.80;55.30;;;;;;4992861;28;20549;-68
2024/03/20 04:18:32;;;;;;;1.10;1.00;;;22.80;55.40;;;;;;4992787;28;20259;-69
2024/03/20 04:20:57;;;;;;;1.10;0.97;;;22.80;55.40;;;;;;4992728;28;20215;-69
2024/03/20 04:23:23;;;;;;;1.30;0.83;;;22.80;55.40;;;;;;4992506;28;20230;-69
2024/03/20 04:25:49;;;;;;;1.30;1.10;;;22.80;55.30;;;;;;4992774;28;20184;-69
2024/03/20 04:28:14;;;;;;;1.30;1.10;;;22.70;55.30;;;;;;4993161;28;20523;-70
2024/03/20 04:30:40;;;;;;;1.40;0.90;;;22.80;55.30;;;;;;4992241;28;20204;-70
2024/03/20 04:33:06;;;;;;;1.13;1.03;;;22.80;55.40;;;;;;4992742;28;20231;-70
2024/03/20 04:35:32;;;;;;;1.20;1.07;;;22.80;55.40;;;;;;4999239;28;20591;-70
2024/03/20 04:37:58;;;;;;;1.23;1.03;;;22.80;55.30;;;;;;4999299;28;20766;-69
2024/03/20 04:40:24;;;;;;;1.17;1.00;;;22.80;55.40;;;;;;4998444;28;20527;-70
2024/03/20 04:42:49;;;;;;;1.30;0.90;;;22.80;55.30;;;;;;4999222;28;20188;-69
2024/03/20 04:45:15;;;;;;;1.37;1.23;;;22.80;55.30;;;;;;4998513;28;20176;-69
2024/03/20 04:47:40;;;;;;;1.20;0.90;;;22.80;55.30;;;;;;4980951;28;20173;-70
2024/03/20 04:50:11;;;;;;;1.30;1.10;;;22.80;55.40;;;;;;4998056;28;20346;-69
2024/03/20 04:52:37;;;;;;;1.43;1.10;;;22.80;55.40;;;;;;4998332;28;20662;-69
2024/03/20 04:55:05;;;;;;;1.30;1.07;;;22.80;55.40;;;;;;4998362;28;20945;-70
2024/03/20 04:57:31;;;;;;;1.20;1.10;;;22.70;55.30;;;;;;4998671;28;20408;-69
2024/03/20 04:59:56;;;;;;;1.10;0.93;;;22.80;55.40;;;;;;4998533;28;20435;-70
2024/03/20 05:02:22;;;;;;;1.50;1.20;;;22.80;55.40;;;;;;4998521;28;20177;-68
2024/03/20 05:04:47;;;;;;;1.33;1.07;;;22.80;55.40;;;;;;4980826;28;20710;-69
2024/03/20 05:07:13;;;;;;;1.40;1.17;;;22.70;55.40;;;;;;4998628;28;20168;-70
2024/03/20 05:09:39;;;;;;;1.40;1.10;;;22.80;55.40;;;;;;4998515;28;20235;-69
2024/03/20 05:12:05;;;;;;;1.40;1.10;;;22.80;55.40;;;;;;4998004;28;20419;-70
2024/03/20 05:14:31;;;;;;;1.13;0.90;;;22.80;55.50;;;;;;4998418;28;20177;-69
2024/03/20 05:16:59;;;;;;;1.00;0.83;;;22.80;56.00;;;;;;4998578;28;20426;-69
2024/03/20 05:19:28;;;;;;;1.50;1.17;;;22.80;55.50;;;;;;4998064;28;20193;-70
2024/03/20 05:21:53;;;;;;;1.20;1.10;;;22.80;55.50;;;;;;4998231;28;20432;-69
2024/03/20 05:24:19;;;;;;;1.20;1.00;;;22.80;55.40;;;;;;4998942;28;20423;-69
2024/03/20 05:26:45;;;;;;;1.00;0.90;;;22.80;55.40;;;;;;4999091;28;20271;-69
2024/03/20 05:29:11;;;;;;;2.43;1.20;;;22.80;55.40;;;;;;4998157;28;20200;-69
2024/03/20 05:31:38;;;;;;;1.10;0.87;;;22.80;55.40;;;;;;4980457;28;20189;-69
2024/03/20 05:34:04;;;;;;;1.10;0.97;;;22.80;55.40;;;;;;4998781;28;20219;-69
2024/03/20 05:36:30;;;;;;;1.20;1.10;;;22.80;55.40;;;;;;4998454;28;20463;-69
2024/03/20 05:38:55;;;;;;;1.40;1.07;;;22.80;55.40;;;;;;4998710;28;20176;-69
2024/03/20 05:41:21;;;;;;;1.30;1.10;;;22.80;55.40;;;;;;4998024;28;20707;-69
2024/03/20 05:43:47;;;;;;;1.00;0.80;;;22.80;55.40;;;;;;4998575;28;20232;-69
2024/03/20 05:46:13;;;;;;;1.00;0.90;;;22.80;55.40;;;;;;4995460;28;20180;-70
2024/03/20 05:48:39;;;;;;;1.60;1.13;;;22.90;55.50;;;;;;4995651;28;20181;-70
2024/03/20 05:51:08;;;;;;;1.03;0.90;;;22.80;55.40;;;;;;4994929;28;20486;-69
2024/03/20 05:53:34;;;;;;;1.60;1.13;;;22.90;55.50;;;;;;4995413;28;20926;-69
2024/03/20 05:56:00;;;;;;;1.23;1.00;;;22.90;55.50;;;;;;4995238;28;20411;-69
2024/03/20 05:58:25;;;;;;;1.47;1.00;;;22.90;55.40;;;;;;4995366;28;20260;-69
2024/03/20 06:00:51;;;;;;;1.10;1.00;;;22.90;55.40;;;;;;4994938;28;20558;-69
2024/03/20 06:03:18;;;;;;;1.50;1.10;;;22.90;55.40;;;;;;4995407;28;20181;-69
2024/03/20 06:05:45;;;;;;;1.07;0.90;;;22.90;55.50;;;;;;4995216;28;20495;-70
2024/03/20 06:08:11;;;;;;;1.13;0.93;;;22.90;55.40;;;;;;4994347;28;20456;-69
2024/03/20 06:10:36;;;;;;;1.27;0.80;;;22.90;56.00;;;;;;4992907;28;20502;-69
2024/03/20 06:13:02;;;;;;;1.37;1.20;;;22.90;55.40;;;;;;4992368;28;20424;-70
2024/03/20 06:15:28;;;;;;;1.07;0.90;;;22.90;55.40;;;;;;4993069;28;20271;-69
2024/03/20 06:17:53;;;;;;;1.00;0.90;;;22.90;55.50;;;;;;4992006;28;20184;-68
2024/03/20 06:20:20;;;;;;;1.07;0.83;;;22.90;55.50;;;;;;4992810;28;20255;-69
2024/03/20 06:22:45;;;;;;;1.60;0.90;;;22.90;55.50;;;;;;4992884;28;20188;-69
2024/03/20 06:25:12;;;;;;;1.00;0.80;;;22.90;55.50;;;;;;4992623;28;20420;-69
2024/03/20 06:27:38;;;;;;;1.30;0.80;;;22.90;55.50;;;;;;4992768;28;20173;-69
2024/03/20 06:30:11;;;;;;;1.20;1.10;;;22.90;55.50;;;;;;4992408;28;21056;-69
2024/03/20 06:32:38;;;;;;;1.10;0.90;;;22.90;55.50;;;;;;4992626;28;20407;-70
2024/03/20 06:35:04;;;;;;;1.00;0.90;;;22.90;55.50;;;;;;4992359;28;20783;-70
2024/03/20 06:37:29;;;;;;;1.37;1.00;;;22.90;55.50;;;;;;4992540;28;20420;-69
2024/03/20 06:39:55;;;;;;;1.30;1.00;;;22.90;55.50;;;;;;4992294;28;20510;-69
2024/03/20 06:42:21;;;;;;;1.33;1.00;;;22.90;55.50;;;;;;4992457;28;20177;-69
2024/03/20 06:44:47;;;;;;;1.30;1.07;;;22.90;55.50;;;;;;4992353;28;21062;-69
2024/03/20 06:47:14;;;;;;;1.60;1.17;;;22.90;55.50;;;;;;4992279;28;20181;-69
2024/03/20 06:49:40;;;;;;;1.20;0.90;;;22.90;55.40;;;;;;4992257;28;20483;-69
2024/03/20 06:52:05;;;;;;;1.10;1.00;;;22.90;55.50;;;;;;4992283;28;20400;-69
2024/03/20 06:54:31;;;;;;;1.40;1.10;;;22.90;55.40;;;;;;4992180;28;20170;-69
2024/03/20 06:57:03;;;;;;;1.07;0.93;;;22.90;55.40;;;;;;4991789;28;20170;-69
2024/03/20 06:59:30;;;;;;;1.40;1.27;;;22.90;55.40;;;;;;4991985;28;20271;-69
2024/03/20 07:01:57;;;;;;;1.53;1.07;;;22.90;55.40;;;;;;4992028;28;20416;-68
2024/03/20 07:04:24;;;;;;;1.10;1.00;;;23.00;55.50;;;;;;4992030;28;20412;-69
2024/03/20 07:06:49;;;;;;;1.00;0.90;;;22.90;55.40;;;;;;4992013;28;20462;-69
2024/03/20 07:09:15;;;;;;;1.33;1.00;;;23.00;55.50;;;;;;4991822;28;20546;-69
2024/03/20 07:11:41;;;;;;;1.20;1.00;;;22.90;55.50;;;;;;4991946;28;20176;-69
2024/03/20 07:14:06;;;;;;;1.20;1.00;;;22.90;55.50;;;;;;4991858;28;20185;-69
2024/03/20 07:16:32;;;;;;;1.07;0.77;;;23.00;55.50;;;;;;4992123;28;20212;-70
2024/03/20 07:18:57;;;;;;;1.37;1.00;;;22.90;55.50;;;;;;4991789;28;20517;-69
2024/03/20 07:21:23;;;;;;;1.10;0.87;;;22.90;55.50;;;;;;4991820;28;20181;-69
2024/03/20 07:23:49;;;;;;;1.10;0.87;;;22.90;55.50;;;;;;4991718;28;20177;-69
2024/03/20 07:26:15;;;;;;;1.10;1.00;;;22.90;55.40;;;;;;4991653;28;20670;-69
2024/03/20 07:28:41;;;;;;;1.20;0.90;;;23.00;55.50;;;;;;4992321;28;20440;-69
2024/03/20 07:31:07;;;;;;;1.00;0.80;;;23.00;55.50;;;;;;4991538;28;20212;-69
2024/03/20 07:33:32;;;;;;;1.03;0.90;;;23.00;55.50;;;;;;4991553;28;20419;-70
2024/03/20 07:35:58;;;;;;;1.40;1.20;;;23.00;55.50;;;;;;4991577;28;20412;-69
2024/03/20 07:38:24;;;;;;;1.00;0.90;;;23.00;55.50;;;;;;4991492;28;20177;-69
2024/03/20 07:40:53;;;;;;;1.40;1.00;;;23.00;55.50;;;;;;4991388;28;20534;-69
2024/03/20 07:43:18;;;;;;;1.13;0.80;;;23.00;55.50;;;;;;4991469;28;20188;-67
2024/03/20 07:45:44;;;;;;;1.13;0.90;;;23.00;55.50;;;;;;4973869;28;20416;-68
2024/03/20 07:48:12;;;;;;;1.30;1.10;;;23.00;55.50;;;;;;4991344;28;20209;-69
2024/03/20 07:50:38;;;;;;;1.17;0.90;;;23.00;55.50;;;;;;4990981;28;20514;-69
2024/03/20 07:53:04;;;;;;;1.20;0.90;;;23.00;55.50;;;;;;4991288;28;20901;-67
2024/03/20 07:55:30;;;;;;;1.37;0.93;;;23.00;55.50;;;;;;4991514;28;20432;-69
2024/03/20 07:57:56;;;;;;;1.30;1.00;;;23.00;55.50;;;;;;4991216;28;20960;-69
2024/03/20 08:00:28;;;;;;;1.10;0.90;;;23.00;55.50;;;;;;4991164;28;20224;-69
2024/03/20 08:02:55;;;;;;;1.50;0.83;;;23.00;55.50;;;;;;4991153;28;20172;-69
2024/03/20 08:05:22;;;;;;;1.20;1.00;;;23.00;55.50;;;;;;4991209;28;20419;-68
2024/03/20 08:07:48;;;;;;;1.27;1.00;;;23.00;55.60;;;;;;4991125;28;20471;-69
2024/03/20 08:10:13;;;;;;;1.20;1.00;;;23.00;55.50;;;;;;4990511;28;20978;-68
2024/03/20 08:12:39;;;;;;;1.10;0.90;;;23.00;55.50;;;;;;4991268;28;20185;-68
2024/03/20 08:15:05;;;;;;;0.90;0.77;;;23.00;55.50;;;;;;4990966;28;20248;-69
2024/03/20 08:17:31;;;;;;;1.00;0.80;;;23.00;55.50;;;;;;4990916;28;20507;-69
2024/03/20 08:19:56;;;;;;;1.20;0.73;;;23.00;55.50;;;;;;4990854;28;20444;-69
2024/03/20 08:22:22;;;;;;;1.00;0.80;;;23.10;55.60;;;;;;4990922;28;20181;-69
2024/03/20 08:24:48;;;;;;;1.10;0.80;;;23.10;55.60;;;;;;4990856;28;20181;-69
2024/03/20 08:27:13;;;;;;;0.90;0.70;;;23.10;55.60;;;;;;4990754;28;20232;-68
2024/03/20 08:29:39;;;;;;;1.30;0.90;;;23.10;55.60;;;;;;4990666;28;20201;-69
2024/03/20 08:32:05;;;;;;;1.23;0.90;;;23.10;55.60;;;;;;4991086;28;20711;-69
2024/03/20 08:34:31;;;;;;;1.17;0.90;;;23.10;55.60;;;;;;4991040;28;20169;-69
2024/03/20 08:36:57;;;;;;;1.00;0.80;;;23.10;55.60;;;;;;4990802;28;20181;-69
2024/03/20 08:39:22;;;;;;;0.90;0.70;;;23.10;55.60;;;;;;4990697;28;20432;-68
2024/03/20 08:41:48;;;;;;;1.13;1.03;;;23.10;55.60;;;;;;4990746;28;20180;-69
2024/03/20 08:44:13;;;;;;;1.20;0.80;;;23.10;55.60;;;;;;4990716;28;20169;-68
2024/03/20 08:46:41;;;;;;;1.17;1.00;;;23.10;55.60;;;;;;4990731;28;20654;-69
2024/03/20 08:49:08;;;;;;;1.47;1.07;;;23.10;55.60;;;;;;4990833;28;20180;-69
2024/03/20 08:51:34;;;;;;;1.10;0.90;;;23.10;55.60;;;;;;4972867;28;20483;-69
2024/03/20 08:54:00;;;;;;;1.03;0.87;;;23.10;55.60;;;;;;4990655;28;20934;-68
2024/03/20 08:56:26;;;;;;;0.90;0.80;;;23.10;55.60;;;;;;4990565;28;20761;-68
2024/03/20 08:58:51;;;;;;;1.03;0.90;;;23.10;55.50;;;;;;4990504;28;20404;-69
2024/03/20 09:01:17;;;;;;;1.13;1.00;;;23.10;55.60;;;;;;4972978;28;20208;-70
2024/03/20 09:03:43;;;;;;;1.53;0.93;;;23.10;55.60;;;;;;4990482;28;20256;-69
2024/03/20 09:06:09;;;;;;;1.17;0.90;;;23.10;55.60;;;;;;4990428;28;20428;-69
2024/03/20 09:08:35;;;;;;;1.10;0.90;;;23.10;55.60;;;;;;4990435;28;20181;-69
2024/03/20 09:11:01;;;;;;;1.10;0.70;;;23.10;55.60;;;;;;4990293;28;20201;-69
2024/03/20 09:13:29;;;;;;;1.03;0.90;;;23.10;55.60;;;;;;4990534;28;21027;-69
2024/03/20 09:15:55;;;;;;;0.90;0.70;;;23.10;55.60;;;;;;4972820;28;20439;-69
2024/03/20 09:18:20;;;;;;;0.97;0.80;;;23.10;55.60;;;;;;4990406;28;20929;-69
2024/03/20 09:20:46;;;;;;;1.00;0.90;;;23.10;55.60;;;;;;4991063;28;20917;-69
2024/03/20 09:23:12;;;;;;;1.10;1.00;;;23.10;55.60;;;;;;4994089;28;20260;-69
2024/03/20 09:25:38;;;;;;;1.00;0.83;;;23.10;55.60;;;;;;4994008;28;20204;-69
2024/03/20 09:28:04;;;;;;;0.90;0.70;;;23.10;55.60;;;;;;4993999;28;20412;-70
2024/03/20 09:30:29;;;;;;;1.10;0.90;;;23.10;55.60;;;;;;4994038;28;20209;-69
2024/03/20 09:32:57;;;;;;;1.20;0.90;;;23.10;55.60;;;;;;4993845;28;20664;-69
2024/03/20 09:35:22;;;;;;;1.10;0.80;;;23.10;55.70;;;;;;4993816;28;20735;-69
2024/03/20 09:37:48;;;;;;;1.03;0.80;;;23.10;55.60;;;;;;4993790;28;20502;-66
2024/03/20 09:40:17;;;;;;;0.90;0.70;;;23.10;55.60;;;;;;4993681;28;20684;-69
2024/03/20 09:42:43;;;;;;;1.20;0.93;;;23.10;55.60;;;;;;4993700;28;20196;-70
2024/03/20 09:45:13;;;;;;;1.10;0.90;;;23.10;55.60;;;;;;4995792;28;20947;-71
2024/03/20 09:47:39;;;;;;;1.07;0.80;;;23.10;55.70;;;;;;4996126;28;20416;-71
2024/03/20 09:50:11;;;;;;;1.20;1.10;;;23.10;55.70;;;;;;4995977;28;20468;-70
2024/03/20 09:52:37;;;;;;;1.63;1.53;;;23.10;55.70;;;;;;4996260;28;20185;-70
2024/03/20 09:55:12;;;;;;;2.00;1.50;;;23.10;55.60;;;;;;4996051;28;20447;-70
2024/03/20 09:57:42;;;;;;;1.60;1.50;;;23.10;55.70;;;;;;4995696;28;20523;-70
2024/03/20 10:00:14;;;;;;;2.10;1.90;;;23.10;55.70;;;;;;4995290;28;20435;-71
2024/03/20 10:02:42;;;;;;;1.90;1.47;;;23.10;55.70;;;;;;4995668;28;20910;-70
2024/03/20 10:05:08;;;;;;;2.10;1.57;;;23.20;55.70;;;;;;4995981;28;20467;-70
2024/03/20 10:07:37;;;;;;;2.60;1.70;;;23.10;55.70;;;;;;4995194;28;20503;-70
2024/03/20 10:10:06;;;;;;;2.90;2.00;;;23.20;55.70;;;;;;4977878;28;20205;-71
2024/03/20 10:12:31;;;;;;;2.57;2.00;;;23.20;55.70;;;;;;4995587;28;20498;-70
2024/03/20 10:14:58;;;;;;;2.40;1.63;;;23.20;55.70;;;;;;4977371;28;20464;-71
2024/03/20 10:17:24;;;;;;;2.57;1.90;;;23.20;55.70;;;;;;4976488;28;20177;-69
2024/03/20 10:19:50;;;;;;;2.07;1.87;;;23.20;55.70;;;;;;4994826;28;20428;-69
2024/03/20 10:22:15;;;;;;;2.23;1.93;;;23.20;55.70;;;;;;4994484;28;20169;-71
2024/03/20 10:24:42;;;;;;;2.87;1.90;;;23.20;55.70;;;;;;4976077;28;20181;-70
2024/03/20 10:27:09;;;;;;;1.90;1.60;;;23.20;55.80;;;;;;4976394;28;20189;-69
2024/03/20 10:29:38;;;;;;;2.63;1.80;;;23.20;55.70;;;;;;4993861;28;20439;-69
2024/03/20 10:32:05;;;;;;;2.83;2.00;;;23.20;55.70;;;;;;4993413;28;20915;-71
2024/03/20 10:34:33;;;;;;;2.37;1.97;;;23.20;55.70;;;;;;4993680;28;20412;-70
2024/03/20 10:36:59;;;;;;;2.53;2.20;;;23.20;55.70;;;;;;4993672;28;20443;-70
2024/03/20 10:39:27;;;;;;;3.57;2.20;;;23.20;55.70;;;;;;4993505;28;20958;-71
2024/03/20 10:41:54;;;;;;;3.30;2.43;;;23.20;55.70;;;;;;4993219;28;20201;-70
2024/03/20 10:44:21;;;;;;;4.73;2.20;;;23.20;55.70;;;;;;4993812;28;20499;-69
2024/03/20 10:46:50;;;;;;;2.20;1.77;;;23.20;55.70;;;;;;4993140;28;20491;-70
2024/03/20 10:49:20;;;;;;;2.63;2.10;;;23.20;55.80;;;;;;4993467;28;20527;-71
2024/03/20 10:51:48;;;;;;;2.40;2.03;;;23.20;55.70;;;;;;4975689;28;20487;-70
2024/03/20 10:54:14;;;;;;;4.03;2.30;;;23.20;55.80;;;;;;4993113;28;20416;-69
2024/03/20 10:56:47;;;;;;;3.07;2.73;;;23.20;55.70;;;;;;4992929;28;20493;-70
2024/03/20 10:59:22;;;;;;;1.90;1.63;;;23.20;55.70;;;;;;4992941;28;20942;-70
2024/03/20 11:02:04;;;;;;;3.30;1.90;;;23.20;55.80;;;;;;4992782;28;20392;-71
2024/03/20 11:04:41;;;;;;;2.10;1.90;;;23.20;55.70;;;;;;4992966;28;20423;-70
2024/03/20 11:07:23;;;;;;;2.17;1.87;;;23.20;55.70;;;;;;4993251;28;20435;-70
2024/03/20 11:09:50;;;;;;;2.97;2.30;;;23.20;55.70;;;;;;4993055;28;20466;-71
2024/03/20 11:12:27;;;;;;;1.63;1.53;;;23.20;55.70;;;;;;4992922;28;20416;-70
2024/03/20 11:14:53;;;;;;;2.43;2.23;;;23.20;55.70;;;;;;4992179;28;20427;-71
2024/03/20 11:17:20;;;;;;;3.80;2.20;;;23.20;55.70;;;;;;4992167;28;20413;-68
2024/03/20 11:19:47;;;;;;;3.40;2.37;;;23.20;55.70;;;;;;4992694;28;20463;-70
2024/03/20 11:22:25;;;;;;;3.40;2.20;;;23.20;55.70;;;;;;4992945;28;20423;-71
2024/03/20 11:24:53;;;;;;;2.10;1.90;;;23.30;55.80;;;;;;4975281;28;20424;-71
2024/03/20 11:27:19;;;;;;;2.43;2.23;;;23.30;55.80;;;;;;4992449;28;20416;-70
2024/03/20 11:29:45;;;;;;;2.60;2.13;;;23.30;55.90;;;;;;4992470;28;20452;-71
2024/03/20 11:32:16;;;;;;;2.20;2.00;;;23.30;55.80;;;;;;4992403;28;20447;-70
2024/03/20 11:34:44;;;;;;;3.20;2.33;;;23.30;55.80;;;;;;4992454;28;20407;-70
2024/03/20 11:37:15;;;;;;;2.50;2.30;;;23.30;55.80;;;;;;4992753;28;20427;-70
2024/03/20 11:39:42;;;;;;;3.30;2.00;;;23.30;55.80;;;;;;4993103;28;20786;-70
2024/03/20 11:42:07;;;;;;;2.30;1.90;;;23.30;55.80;;;;;;4992752;28;20455;-70
2024/03/20 11:44:33;;;;;;;2.73;2.40;;;23.30;55.80;;;;;;4992027;28;20444;-69
2024/03/20 11:47:00;;;;;;;2.33;1.80;;;23.30;55.80;;;;;;4993319;28;20173;-71
2024/03/20 11:49:26;;;;;;;2.40;2.10;;;23.30;55.80;;;;;;4993030;28;20205;-69
2024/03/20 11:51:52;;;;;;;1.80;1.70;;;23.30;55.80;;;;;;4993771;28;20407;-71
2024/03/20 11:54:19;;;;;;;2.70;2.20;;;23.30;55.80;;;;;;4993253;28;20169;-70
2024/03/20 11:56:49;;;;;;;2.87;2.30;;;23.30;55.80;;;;;;4992826;28;20404;-70
2024/03/20 11:59:15;;;;;;;2.60;2.30;;;23.30;55.80;;;;;;4992408;28;20432;-71
2024/03/20 12:01:40;;;;;;;2.10;1.90;;;23.30;55.80;;;;;;4992586;28;20419;-71
2024/03/20 12:04:06;;;;;;;2.80;2.20;;;23.30;55.80;;;;;;4992395;28;20189;-70
2024/03/20 12:06:36;;;;;;;2.30;1.60;;;23.30;55.80;;;;;;4992598;28;20185;-68
2024/03/20 12:09:14;;;;;;;2.57;2.00;;;23.30;55.70;;;;;;4992455;28;20173;-70
2024/03/20 12:11:40;;;;;;;4.20;2.10;;;23.30;55.70;;;;;;4992499;28;20486;-70
2024/03/20 12:14:06;;;;;;;2.70;2.50;;;23.30;55.80;;;;;;4992541;28;20503;-69
2024/03/20 12:16:32;;;;;;;2.67;2.20;;;23.30;55.70;;;;;;4992442;28;20204;-70
2024/03/20 12:18:58;;;;;;;3.73;2.07;;;23.30;55.70;;;;;;4992289;28;20432;-69
2024/03/20 12:21:24;;;;;;;2.83;2.47;;;23.30;55.70;;;;;;4992110;28;20247;-70
2024/03/20 12:23:51;;;;;;;3.00;2.20;;;23.30;55.70;;;;;;4974671;28;21128;-70
2024/03/20 12:26:24;;;;;;;2.63;2.40;;;23.30;55.70;;;;;;4994973;28;20181;-69
2024/03/20 12:28:53;;;;;;;2.43;1.90;;;23.30;55.70;;;;;;4986395;28;20960;-68
2024/03/20 12:31:20;;;;;;;4.30;2.23;;;23.30;55.70;;;;;;5011158;28;20489;-70
2024/03/20 12:33:53;;;;;;;3.60;2.60;;;23.30;55.70;;;;;;5011769;28;20411;-69
2024/03/20 12:36:20;;;;;;;3.33;2.80;;;23.30;55.60;;;;;;5012780;28;20928;-70
2024/03/20 12:38:48;;;;;;;6.43;3.43;;;23.30;55.70;;;;;;5012742;28;20403;-69
2024/03/20 12:41:15;;;;;;;9.50;3.80;;;23.30;55.60;;;;;;5012562;28;20502;-69
2024/03/20 12:43:41;;;;;;;15.33;4.60;;;23.30;56.20;;;;;;5012702;28;20474;-68